»·PEaware :: DLH756 EDDF-VABB

DLH756 :: EDDF-VABB

FLIGHT INFORMATION

Flight Status: Arrived
Operator:
Lufthansa
More flights by this operator :: More flights under this callsign
Pilot: Andrew J. (13363)
Aircraft: BOEING 747-400 (WINGLETS)
(B744)
More flights by this aircraft type
Origin: EDDF Frankfurt/Main
Germany
Destination: VABB Chhatrapati Shivaji Intl
India
More flights between these airports :: More routes between these airports
Route: SULU7E SULUS UZ650 VEMUT PEPIK BALAP NARKA Z650 REBLA L620 DINRO N743 UDROS UM859 KARDE UN644 ROLIN N644 LAGAS M747 LUSAL M11 RODAR A909 LEMOD N644 DI A466 SAMAR M890 LKN R460 CEA L507 OSUKA WILA1C
File this flight plan on PilotEdge
Remarks:
Altitude:
(Current/Filed)
35,000ft
Speed:
(Current/Filed)
460kts
Departed: 05-Feb-17 07:08 AM
Arrived: 05-Feb-17 02:37 PM
Distance/Time
Traveled:
3544nm/7:29
Distance/Time
To Go:
Arrived

Flight Plot

Page will automatically refresh every two minutes.

Flight plan parsing failed; only flown route is shown


Map Options




Map Legend


Flown Route
Filed Route
Departure Airport
Arrival Airport
Navaid (VOR, NDB)
Fix

Horizontal Profiles

Position Reports

Time Latitude Longitude Heading Altitude Ground
Speed
05-Feb-17 07:07 49.816533 8.942775 120 10671ft 348kts
05-Feb-17 07:08 49.771770 9.065285 119 11819ft 399kts
05-Feb-17 07:09 49.739558 9.231295 103 14142ft 422kts
05-Feb-17 07:10 49.710818 9.411287 105 16670ft 442kts
05-Feb-17 07:11 49.679438 9.600034 106 19085ft 464kts
05-Feb-17 07:12 49.691120 9.801599 74 21234ft 489kts
05-Feb-17 07:13 49.741922 9.999499 56 23211ft 506kts
05-Feb-17 07:14 49.824575 10.180198 52 25019ft 524kts
05-Feb-17 07:15 49.895525 10.334716 51 26362ft 538kts
05-Feb-17 07:16 49.983758 10.526385 53 27955ft 547kts
05-Feb-17 07:17 50.053621 10.733409 83 29630ft 549kts
05-Feb-17 07:18 50.028572 10.961056 114 31318ft 531kts
05-Feb-17 07:19 49.980469 11.177055 111 32931ft 526kts
05-Feb-17 07:20 49.934587 11.391301 110 34282ft 521kts
05-Feb-17 07:21 49.894580 11.607743 107 34683ft 520kts
05-Feb-17 07:22 49.871444 11.792139 97 34682ft 520kts
05-Feb-17 07:23 49.852137 12.014193 98 34684ft 520kts
05-Feb-17 07:24 49.831656 12.235356 98 34687ft 520kts
05-Feb-17 07:25 49.810594 12.457283 102 34693ft 520kts
05-Feb-17 07:26 49.769155 12.672173 109 34703ft 520kts
05-Feb-17 07:27 49.724913 12.885104 108 34713ft 521kts
05-Feb-17 07:28 49.688472 13.065486 108 34726ft 522kts
05-Feb-17 07:29 49.646645 13.271520 108 34726ft 522kts
05-Feb-17 07:30 49.616031 13.419384 108 34728ft 521kts
05-Feb-17 07:31 49.595803 13.516333 109 34728ft 521kts
05-Feb-17 07:32 49.551164 13.728579 109 34724ft 521kts
05-Feb-17 07:33 49.506221 13.940020 109 34720ft 520kts
05-Feb-17 07:34 49.460836 14.151349 109 34717ft 522kts
05-Feb-17 07:35 49.422252 14.329268 110 34728ft 522kts
05-Feb-17 07:36 49.375915 14.540976 110 34730ft 522kts
05-Feb-17 07:37 49.329275 14.751893 110 34739ft 523kts
05-Feb-17 07:38 49.282213 14.962597 110 34737ft 523kts
05-Feb-17 07:39 49.234709 15.173157 110 34736ft 524kts
05-Feb-17 07:40 49.186778 15.383505 110 34733ft 524kts
05-Feb-17 07:41 49.138459 15.593483 110 34738ft 524kts
05-Feb-17 07:42 49.096514 15.774106 111 34730ft 524kts
05-Feb-17 07:43 49.047429 15.983574 111 34728ft 526kts
05-Feb-17 07:44 48.997890 16.192936 111 34736ft 526kts
05-Feb-17 07:45 48.947978 16.401899 111 34756ft 526kts
05-Feb-17 07:46 48.897526 16.611123 111 34771ft 526kts
05-Feb-17 07:47 48.847227 16.819526 111 34784ft 526kts
05-Feb-17 07:48 48.803260 16.997206 111 34782ft 526kts
05-Feb-17 07:49 48.745366 17.200233 118 34781ft 525kts
05-Feb-17 07:50 48.706682 17.318782 117 34786ft 524kts
05-Feb-17 07:51 48.691139 17.366762 117 34787ft 524kts
05-Feb-17 07:52 48.674996 17.416656 117 34787ft 524kts
05-Feb-17 08:01 48.567450 17.752528 117 34787ft 523kts
05-Feb-17 08:02 48.503485 17.949520 117 34788ft 523kts
05-Feb-17 08:03 48.443129 18.133744 117 34792ft 523kts
05-Feb-17 08:04 48.394204 18.282086 117 34789ft 523kts
05-Feb-17 08:05 48.329313 18.477519 118 34801ft 523kts
05-Feb-17 08:06 48.263992 18.672760 118 34809ft 524kts
05-Feb-17 08:07 48.198572 18.867962 117 34812ft 525kts
05-Feb-17 08:08 48.132129 19.063336 118 34820ft 526kts
05-Feb-17 08:09 48.065459 19.257757 118 34818ft 520kts
05-Feb-17 08:10 48.016004 19.421304 115 34809ft 513kts
05-Feb-17 08:11 47.959254 19.608779 114 34763ft 460kts
05-Feb-17 08:12 47.901122 19.801552 113 34730ft 438kts
05-Feb-17 08:13 47.858294 19.943062 113 34733ft 462kts
05-Feb-17 08:14 47.804212 20.119174 114 34731ft 471kts
05-Feb-17 08:15 47.749561 20.295620 114 34729ft 470kts
05-Feb-17 08:16 47.694706 20.471466 114 34729ft 470kts
05-Feb-17 08:17 47.646218 20.625888 114 34729ft 470kts
05-Feb-17 08:18 47.590653 20.801690 114 34729ft 470kts
05-Feb-17 08:19 47.535014 20.976518 114 34729ft 470kts
05-Feb-17 08:20 47.479114 21.150965 115 34729ft 470kts
05-Feb-17 08:21 47.422954 21.325035 115 34729ft 470kts
05-Feb-17 08:22 47.366731 21.499565 115 34729ft 470kts
05-Feb-17 08:23 47.309915 21.672764 115 34729ft 470kts
05-Feb-17 08:24 47.259668 21.824501 117 34727ft 470kts
05-Feb-17 08:25 47.177679 21.973158 133 34730ft 470kts
05-Feb-17 08:26 47.087613 22.112016 133 34729ft 470kts
05-Feb-17 08:27 46.997837 22.251769 132 34729ft 470kts
05-Feb-17 08:28 46.908879 22.391540 132 34729ft 470kts
05-Feb-17 08:29 46.819392 22.530390 133 34729ft 470kts
05-Feb-17 08:30 46.740587 22.651921 133 34729ft 470kts
05-Feb-17 08:31 46.650694 22.789848 133 34729ft 470kts
05-Feb-17 08:32 46.560371 22.927716 133 34729ft 470kts
05-Feb-17 08:33 46.470197 23.064647 133 34729ft 470kts
05-Feb-17 08:34 46.379841 23.201153 133 34729ft 470kts
05-Feb-17 08:35 46.289317 23.337218 133 34729ft 470kts
05-Feb-17 08:36 46.198629 23.472838 133 34729ft 470kts
05-Feb-17 08:37 46.121387 23.587811 133 34729ft 470kts
05-Feb-17 08:38 46.030414 23.722589 133 34729ft 470kts
05-Feb-17 08:39 45.939264 23.856953 134 34729ft 470kts
05-Feb-17 08:40 45.847993 23.990824 134 34729ft 470kts
05-Feb-17 08:41 45.756258 24.124704 134 34729ft 470kts
05-Feb-17 08:42 45.664669 24.257707 134 34729ft 470kts
05-Feb-17 08:43 45.572946 24.390247 134 34729ft 470kts
05-Feb-17 08:44 45.492028 24.506633 134 34729ft 469kts
05-Feb-17 08:45 45.400009 24.638374 134 34729ft 469kts
05-Feb-17 08:46 45.307532 24.770125 134 34729ft 469kts
05-Feb-17 08:47 45.215222 24.900996 135 34729ft 469kts
05-Feb-17 08:48 45.122741 25.031474 135 34729ft 469kts
05-Feb-17 08:49 45.030121 25.161516 135 34729ft 469kts
05-Feb-17 08:50 44.949107 25.274751 135 34729ft 469kts
05-Feb-17 08:51 44.855903 25.404437 135 34729ft 469kts
05-Feb-17 08:52 44.762879 25.533255 135 34729ft 469kts
05-Feb-17 08:53 44.669712 25.661657 135 34729ft 469kts
05-Feb-17 08:54 44.576402 25.789648 135 34729ft 469kts
05-Feb-17 08:55 44.482628 25.917669 135 34729ft 469kts
05-Feb-17 08:56 44.389040 26.044836 135 34729ft 469kts
05-Feb-17 08:57 44.306714 26.156211 135 34729ft 469kts
05-Feb-17 08:58 44.213089 26.282923 136 34729ft 469kts
05-Feb-17 08:59 44.118939 26.408751 136 34729ft 469kts
05-Feb-17 09:00 44.028952 26.540473 126 34730ft 469kts
05-Feb-17 09:01 43.953435 26.688115 125 34729ft 469kts
05-Feb-17 09:02 43.877413 26.835089 125 34729ft 469kts
05-Feb-17 09:03 43.802442 26.980619 125 34729ft 469kts
05-Feb-17 09:04 43.734715 27.111064 125 34729ft 469kts
05-Feb-17 09:05 43.658021 27.257550 125 34729ft 469kts
05-Feb-17 09:06 43.581352 27.403167 125 34729ft 469kts
05-Feb-17 09:07 43.504507 27.548386 125 34729ft 469kts
05-Feb-17 09:08 43.427464 27.693260 126 34729ft 469kts
05-Feb-17 09:09 43.350008 27.838196 126 34729ft 469kts
05-Feb-17 09:10 43.282037 27.964800 126 34729ft 469kts
05-Feb-17 09:11 43.204498 28.108565 126 34729ft 469kts
05-Feb-17 09:12 43.126773 28.251978 126 34729ft 469kts
05-Feb-17 09:13 43.048861 28.395043 126 34729ft 469kts
05-Feb-17 09:14 42.970531 28.538182 126 34729ft 469kts
05-Feb-17 09:15 42.892250 28.680546 126 34729ft 469kts
05-Feb-17 09:16 42.813845 28.822459 126 34729ft 469kts
05-Feb-17 09:17 42.744748 28.946965 126 34729ft 469kts
05-Feb-17 09:18 42.665724 29.088728 126 34729ft 469kts
05-Feb-17 09:19 42.586807 29.229635 127 34729ft 469kts
05-Feb-17 09:20 42.508001 29.370461 127 34729ft 469kts
05-Feb-17 09:21 42.428594 29.510449 127 34729ft 469kts
05-Feb-17 09:22 42.356499 29.656460 113 34734ft 469kts
05-Feb-17 09:23 42.314982 29.814519 108 34729ft 469kts
05-Feb-17 09:24 42.275687 29.969053 108 34729ft 469kts
05-Feb-17 09:25 42.233325 30.135440 108 34729ft 469kts
05-Feb-17 09:26 42.190736 30.301558 108 34729ft 469kts
05-Feb-17 09:27 42.147496 30.467915 109 34729ft 469kts
05-Feb-17 09:28 42.104274 30.633523 108 34729ft 469kts
05-Feb-17 09:29 42.060847 30.798932 109 34729ft 469kts
05-Feb-17 09:30 42.022031 30.944298 109 34729ft 469kts
05-Feb-17 09:31 41.977793 31.109095 109 34729ft 469kts
05-Feb-17 09:32 41.933274 31.274202 108 34729ft 469kts
05-Feb-17 09:33 41.888981 31.438728 110 34729ft 469kts
05-Feb-17 09:34 41.843924 31.602708 110 34729ft 469kts
05-Feb-17 09:35 41.799000 31.766694 109 34729ft 469kts
05-Feb-17 09:36 41.753724 31.930964 110 34729ft 469kts
05-Feb-17 09:37 41.713609 32.074460 110 34729ft 469kts
05-Feb-17 09:38 41.667708 32.237600 110 34729ft 469kts
05-Feb-17 09:39 41.622191 32.400789 110 34729ft 469kts
05-Feb-17 09:40 41.575890 32.564029 110 34729ft 469kts
05-Feb-17 09:41 41.529884 32.726806 110 34729ft 469kts
05-Feb-17 09:42 41.483098 32.888930 110 34729ft 469kts
05-Feb-17 09:43 41.436935 33.034693 117 34730ft 469kts
05-Feb-17 09:44 41.375116 33.181094 118 34729ft 469kts
05-Feb-17 09:45 41.312900 33.334026 118 34729ft 469kts
05-Feb-17 09:46 41.251883 33.487057 117 34729ft 469kts
05-Feb-17 09:47 41.190873 33.639946 117 34729ft 469kts
05-Feb-17 09:48 41.129697 33.792512 117 34729ft 469kts
05-Feb-17 09:49 41.068888 33.945926 117 34729ft 469kts
05-Feb-17 09:50 41.015158 34.079490 117 34729ft 469kts
05-Feb-17 09:51 40.953655 34.231468 118 34729ft 469kts
05-Feb-17 09:52 40.892081 34.383212 117 34729ft 469kts
05-Feb-17 09:53 40.830309 34.534684 118 34729ft 469kts
05-Feb-17 09:54 40.767827 34.686121 118 34729ft 469kts
05-Feb-17 09:55 40.704271 34.836036 119 34729ft 469kts
05-Feb-17 09:56 40.639644 34.984961 119 34729ft 469kts
05-Feb-17 09:57 40.582954 35.115088 119 34729ft 469kts
05-Feb-17 09:58 40.518815 35.264112 119 34729ft 469kts
05-Feb-17 09:59 40.453890 35.413053 119 34729ft 469kts
05-Feb-17 10:00 40.388884 35.561165 119 34729ft 469kts
05-Feb-17 10:01 40.323709 35.708909 119 34729ft 469kts
05-Feb-17 10:02 40.258314 35.856439 119 34729ft 469kts
05-Feb-17 10:03 40.199917 35.987584 120 34729ft 469kts
05-Feb-17 10:04 40.134178 36.134557 120 34729ft 469kts
05-Feb-17 10:05 40.068282 36.281187 120 34729ft 469kts
05-Feb-17 10:06 40.002181 36.427581 120 34729ft 469kts
05-Feb-17 10:07 39.936157 36.573807 120 34729ft 469kts
05-Feb-17 10:08 39.869422 36.720110 120 34729ft 468kts
05-Feb-17 10:09 39.802628 36.865493 120 34729ft 468kts
05-Feb-17 10:10 39.743563 36.996041 120 34720ft 483kts
05-Feb-17 10:11 39.674351 37.148906 120 35170ft 505kts
05-Feb-17 10:12 39.601084 37.310479 120 35175ft 528kts
05-Feb-17 10:13 39.526730 37.475160 120 35183ft 529kts
05-Feb-17 10:14 39.451879 37.638946 120 35193ft 529kts
05-Feb-17 10:15 39.376746 37.802392 120 35206ft 529kts
05-Feb-17 10:16 39.301227 37.965823 120 35239ft 531kts
05-Feb-17 10:17 39.234200 38.110163 120 35260ft 532kts
05-Feb-17 10:18 39.157953 38.273567 120 35272ft 532kts
05-Feb-17 10:19 39.081527 38.436518 121 35279ft 532kts
05-Feb-17 10:20 39.004770 38.599495 120 35286ft 534kts
05-Feb-17 10:21 38.927555 38.762877 121 35293ft 534kts
05-Feb-17 10:22 38.850046 38.925130 121 35302ft 534kts
05-Feb-17 10:23 38.785990 39.060526 121 35310ft 534kts
05-Feb-17 10:24 38.712894 39.225870 108 35321ft 534kts
05-Feb-17 10:25 38.683160 39.411757 97 35317ft 533kts
05-Feb-17 10:26 38.659497 39.599019 98 35314ft 534kts
05-Feb-17 10:27 38.635603 39.786632 98 35586ft 536kts
05-Feb-17 10:28 38.610909 39.974902 98 36514ft 536kts
05-Feb-17 10:29 38.586271 40.162128 99 37315ft 535kts
05-Feb-17 10:30 38.564967 40.318200 99 37324ft 535kts
05-Feb-17 10:31 38.539947 40.505209 98 37325ft 534kts
05-Feb-17 10:32 38.515422 40.692368 98 37327ft 533kts
05-Feb-17 10:33 38.491173 40.878870 99 37329ft 533kts
05-Feb-17 10:34 38.466063 41.064722 99 37329ft 531kts
05-Feb-17 10:35 38.438531 41.249805 100 37322ft 532kts
05-Feb-17 10:36 38.410531 41.434726 100 37321ft 532kts
05-Feb-17 10:37 38.387499 41.590419 101 37320ft 532kts
05-Feb-17 10:38 38.358630 41.776781 101 37318ft 543kts
05-Feb-17 10:39 38.329519 41.967121 101 37311ft 551kts
05-Feb-17 10:40 38.300783 42.158526 101 37306ft 551kts
05-Feb-17 10:41 38.270967 42.350076 101 37296ft 550kts
05-Feb-17 10:42 38.241345 42.540577 101 37280ft 549kts
05-Feb-17 10:43 38.216397 42.699543 101 37262ft 549kts
05-Feb-17 10:44 38.186671 42.889512 101 37241ft 547kts
05-Feb-17 10:45 38.157280 43.079189 102 37217ft 548kts
05-Feb-17 10:46 38.126538 43.269271 102 37210ft 549kts
05-Feb-17 10:47 38.081476 43.453106 116 37210ft 546kts
05-Feb-17 10:48 38.017696 43.627376 116 37213ft 545kts
05-Feb-17 10:49 37.955052 43.802552 116 37213ft 547kts
05-Feb-17 10:50 37.902130 43.951005 116 37217ft 546kts
05-Feb-17 10:51 37.839200 44.126025 117 36605ft 550kts
05-Feb-17 10:52 37.776274 44.299312 117 37226ft 544kts
05-Feb-17 10:53 37.724669 44.479366 100 37240ft 552kts
05-Feb-17 10:54 37.703206 44.671807 97 37236ft 555kts
05-Feb-17 10:55 37.685850 44.866266 97 37233ft 557kts
05-Feb-17 10:56 37.666698 45.060045 100 37230ft 556kts
05-Feb-17 10:57 37.635775 45.220382 106 37229ft 556kts
05-Feb-17 10:58 37.597177 45.408631 106 37228ft 554kts
05-Feb-17 10:59 37.552948 45.595009 111 37227ft 553kts
05-Feb-17 11:00 37.502922 45.777970 110 37214ft 553kts
05-Feb-17 11:01 37.453737 45.961123 110 37203ft 553kts
05-Feb-17 11:02 37.404480 46.144296 110 37201ft 554kts
05-Feb-17 11:03 37.362378 46.298878 111 37201ft 555kts
05-Feb-17 11:04 37.311952 46.482736 111 37196ft 556kts
05-Feb-17 11:05 37.261297 46.666202 111 37187ft 557kts
05-Feb-17 11:06 37.210284 46.849660 111 37187ft 558kts
05-Feb-17 11:07 37.159151 47.033389 111 37192ft 559kts
05-Feb-17 11:08 37.107096 47.217584 111 37200ft 559kts
05-Feb-17 11:09 37.054852 47.401138 111 37199ft 560kts
05-Feb-17 11:10 37.010725 47.555275 111 37199ft 560kts
05-Feb-17 11:11 36.957888 47.738694 112 37199ft 561kts
05-Feb-17 11:12 36.905444 47.922408 112 37199ft 562kts
05-Feb-17 11:13 36.852290 48.106842 112 37195ft 564kts
05-Feb-17 11:14 36.798367 48.290513 112 37198ft 565kts
05-Feb-17 11:15 36.725863 48.462336 126 37189ft 559kts
05-Feb-17 11:16 36.642234 48.625262 125 37179ft 559kts
05-Feb-17 11:17 36.572834 48.761010 125 37181ft 559kts
05-Feb-17 11:18 36.489312 48.923991 125 37184ft 560kts
05-Feb-17 11:19 36.405359 49.086912 126 37186ft 561kts
05-Feb-17 11:20 36.321652 49.250016 125 37190ft 562kts
05-Feb-17 11:21 36.237072 49.413531 126 37196ft 562kts
05-Feb-17 11:22 36.152480 49.576366 125 37199ft 564kts
05-Feb-17 11:23 36.081631 49.712111 126 37198ft 564kts
05-Feb-17 11:24 35.996110 49.874571 126 37199ft 565kts
05-Feb-17 11:25 35.910254 50.036830 126 37197ft 565kts
05-Feb-17 11:26 35.824136 50.199396 127 37196ft 565kts
05-Feb-17 11:27 35.737687 50.361017 127 37203ft 566kts
05-Feb-17 11:28 35.650919 50.522711 127 37205ft 567kts
05-Feb-17 11:29 35.564296 50.684767 127 37208ft 569kts
05-Feb-17 11:30 35.491666 50.818946 127 37213ft 570kts
05-Feb-17 11:31 35.389188 50.963203 145 37225ft 559kts
05-Feb-17 11:32 35.268824 51.081685 146 37227ft 555kts
05-Feb-17 11:33 35.149050 51.201095 146 37224ft 558kts
05-Feb-17 11:34 35.028948 51.320953 146 37224ft 558kts
05-Feb-17 11:35 34.908075 51.440810 147 37224ft 559kts
05-Feb-17 11:36 34.787373 51.560343 147 37229ft 561kts
05-Feb-17 11:37 34.686587 51.659363 148 37230ft 562kts
05-Feb-17 11:38 34.564822 51.778315 148 37230ft 564kts
05-Feb-17 11:39 34.441945 51.896765 148 37230ft 565kts
05-Feb-17 11:40 34.318237 52.015165 149 37229ft 566kts
05-Feb-17 11:41 34.195108 52.133821 148 37230ft 567kts
05-Feb-17 11:42 34.071965 52.252411 148 37230ft 567kts
05-Feb-17 11:43 33.967846 52.352843 148 37230ft 567kts
05-Feb-17 11:44 33.844030 52.471867 149 37232ft 569kts
05-Feb-17 11:45 33.720307 52.590110 149 37232ft 569kts
05-Feb-17 11:46 33.596292 52.708163 149 37233ft 570kts
05-Feb-17 11:47 33.471963 52.826069 149 37233ft 571kts
05-Feb-17 11:48 33.347349 52.943804 149 37234ft 572kts
05-Feb-17 11:49 33.221988 53.061801 150 37235ft 573kts
05-Feb-17 11:50 33.115841 53.161371 150 37237ft 573kts
05-Feb-17 11:51 32.990447 53.278855 150 37239ft 574kts
05-Feb-17 11:52 32.864589 53.395866 150 37241ft 575kts
05-Feb-17 11:53 32.738037 53.513171 151 37243ft 576kts
05-Feb-17 11:54 32.632544 53.610588 151 37246ft 579kts
05-Feb-17 11:55 32.505413 53.728071 151 37249ft 581kts
05-Feb-17 11:56 32.377847 53.845548 151 37252ft 582kts
05-Feb-17 11:57 32.270771 53.943675 151 37254ft 583kts
05-Feb-17 11:58 32.142240 54.061142 151 37256ft 583kts
05-Feb-17 11:59 32.014007 54.177921 152 37258ft 583kts
05-Feb-17 12:00 31.889331 54.300681 138 37261ft 599kts
05-Feb-17 12:01 31.791907 54.462686 130 37260ft 613kts
05-Feb-17 12:02 31.695356 54.627250 131 37258ft 613kts
05-Feb-17 12:03 31.616427 54.760194 131 37257ft 614kts
05-Feb-17 12:04 31.515867 54.928934 131 37254ft 614kts
05-Feb-17 12:05 31.417772 55.092729 131 37252ft 615kts
05-Feb-17 12:06 31.320021 55.256804 131 37249ft 616kts
05-Feb-17 12:07 31.221247 55.421089 131 37247ft 616kts
05-Feb-17 12:08 31.122551 55.584466 132 37242ft 617kts
05-Feb-17 12:09 31.023525 55.747704 132 37239ft 618kts
05-Feb-17 12:10 30.941296 55.882743 132 37237ft 619kts
05-Feb-17 12:11 30.841463 56.046075 132 37234ft 621kts
05-Feb-17 12:12 30.741012 56.210134 132 37232ft 622kts
05-Feb-17 12:13 30.640330 56.373316 132 37230ft 623kts
05-Feb-17 12:14 30.539116 56.536540 132 37230ft 624kts
05-Feb-17 12:15 30.437854 56.699723 132 37230ft 624kts
05-Feb-17 12:16 30.335925 56.862773 132 37229ft 623kts
05-Feb-17 12:17 30.256679 57.005965 122 37231ft 630kts
05-Feb-17 12:18 30.179644 57.189238 120 37230ft 636kts
05-Feb-17 12:19 30.101468 57.372284 120 37230ft 636kts
05-Feb-17 12:20 30.022926 57.555141 120 37231ft 637kts
05-Feb-17 12:21 29.943518 57.738527 121 37231ft 638kts
05-Feb-17 12:22 29.864057 57.921121 121 37233ft 638kts
05-Feb-17 12:23 29.796728 58.075160 121 37235ft 638kts
05-Feb-17 12:24 29.716830 58.257158 121 37237ft 638kts
05-Feb-17 12:25 29.636440 58.439420 121 37240ft 638kts
05-Feb-17 12:26 29.556006 58.620928 121 37244ft 639kts
05-Feb-17 12:27 29.475274 58.802267 121 37266ft 639kts
05-Feb-17 12:28 29.394368 58.983158 121 37255ft 637kts
05-Feb-17 12:29 29.313250 59.163696 121 37260ft 638kts
05-Feb-17 12:30 29.246053 59.312608 121 37263ft 638kts
05-Feb-17 12:31 29.164469 59.492704 121 37267ft 638kts
05-Feb-17 12:32 29.082833 59.672602 121 37270ft 638kts
05-Feb-17 12:33 29.000609 59.852013 121 37273ft 638kts
05-Feb-17 12:34 28.918882 60.031643 121 37276ft 639kts
05-Feb-17 12:35 28.836554 60.211934 121 37277ft 639kts
05-Feb-17 12:36 28.754882 60.391812 121 37277ft 639kts
05-Feb-17 12:37 28.686880 60.540171 121 37277ft 639kts
05-Feb-17 12:38 28.604408 60.719280 121 37276ft 639kts
05-Feb-17 12:39 28.521434 60.898678 121 37280ft 639kts
05-Feb-17 12:40 28.438589 61.076971 121 37280ft 638kts
05-Feb-17 12:41 28.355563 61.254973 122 37281ft 639kts
05-Feb-17 12:42 28.272422 61.432848 122 37279ft 639kts
05-Feb-17 12:43 28.203364 61.579291 122 37271ft 639kts
05-Feb-17 12:44 28.118988 61.756930 122 37269ft 639kts
05-Feb-17 12:45 28.034566 61.933627 122 37268ft 639kts
05-Feb-17 12:46 27.950443 62.110465 122 37266ft 639kts
05-Feb-17 12:47 27.865835 62.286786 122 37265ft 638kts
05-Feb-17 12:48 27.780805 62.463179 123 37264ft 638kts
05-Feb-17 12:49 27.696148 62.638538 123 37263ft 636kts
05-Feb-17 12:50 27.622534 62.789659 123 37261ft 635kts
05-Feb-17 12:51 27.537268 62.963418 123 37259ft 634kts
05-Feb-17 12:52 27.451706 63.136606 123 37257ft 633kts
05-Feb-17 12:53 27.366213 63.310318 123 37254ft 633kts
05-Feb-17 12:54 27.280570 63.483023 123 37251ft 633kts
05-Feb-17 12:55 27.194784 63.655224 123 37234ft 632kts
05-Feb-17 12:56 27.108828 63.827128 123 37224ft 631kts
05-Feb-17 12:57 27.033789 63.976909 124 37220ft 630kts
05-Feb-17 12:58 26.941715 64.142193 138 37161ft 617kts
05-Feb-17 12:59 26.814610 64.267337 149 37161ft 603kts
05-Feb-17 13:00 26.685652 64.386161 148 37155ft 601kts
05-Feb-17 13:01 26.557390 64.505723 148 37150ft 601kts
05-Feb-17 13:02 26.428446 64.625234 148 37145ft 601kts
05-Feb-17 13:03 26.317627 64.727644 148 37141ft 601kts
05-Feb-17 13:04 26.188989 64.846363 148 37146ft 601kts
05-Feb-17 13:05 26.060234 64.964611 149 37142ft 601kts
05-Feb-17 13:06 25.943346 65.098232 128 37142ft 614kts
05-Feb-17 13:07 25.861195 65.266234 122 37453ft 620kts
05-Feb-17 13:08 25.779911 65.434247 122 38046ft 622kts
05-Feb-17 13:09 25.698060 65.602208 123 38670ft 619kts
05-Feb-17 13:10 25.626686 65.747716 123 39104ft 617kts
05-Feb-17 13:11 25.544313 65.915044 123 39121ft 617kts
05-Feb-17 13:12 25.462138 66.081360 123 39118ft 616kts
05-Feb-17 13:13 25.379891 66.247221 123 39117ft 615kts
05-Feb-17 13:14 25.297794 66.412601 123 39115ft 613kts
05-Feb-17 13:15 25.215195 66.577639 123 39114ft 612kts
05-Feb-17 13:16 25.133620 66.740532 123 39110ft 611kts
05-Feb-17 13:17 25.062346 66.883110 122 39112ft 610kts
05-Feb-17 13:18 24.980340 67.046392 123 39111ft 609kts
05-Feb-17 13:19 24.898382 67.209369 123 39111ft 608kts
05-Feb-17 13:20 24.817103 67.373081 123 39112ft 607kts
05-Feb-17 13:21 24.735753 67.535575 123 39111ft 606kts
05-Feb-17 13:22 24.654842 67.697689 122 39112ft 605kts
05-Feb-17 13:23 24.587359 67.832720 122 39112ft 604kts
05-Feb-17 13:24 24.506931 67.994038 122 39111ft 602kts
05-Feb-17 13:25 24.426122 68.155404 122 39111ft 602kts
05-Feb-17 13:26 24.345373 68.315905 122 39109ft 602kts
05-Feb-17 13:27 24.264493 68.476300 122 39101ft 602kts
05-Feb-17 13:28 24.183427 68.636417 123 39098ft 602kts
05-Feb-17 13:29 24.107817 68.800265 112 39100ft 605kts
05-Feb-17 13:30 24.068635 68.949841 106 39102ft 610kts
05-Feb-17 13:31 24.022571 69.128153 107 39100ft 610kts
05-Feb-17 13:32 23.976511 69.305843 107 39097ft 603kts
05-Feb-17 13:33 23.930249 69.481772 107 39092ft 603kts
05-Feb-17 13:34 23.883465 69.658636 107 39088ft 605kts
05-Feb-17 13:35 23.836610 69.834829 107 39085ft 605kts
05-Feb-17 13:36 23.791594 70.003371 107 39080ft 606kts
05-Feb-17 13:37 23.748338 70.164530 107 39075ft 605kts
05-Feb-17 13:38 23.700777 70.340898 108 39072ft 604kts
05-Feb-17 13:39 23.653235 70.516339 108 39069ft 603kts
05-Feb-17 13:40 23.605728 70.691279 107 39067ft 602kts
05-Feb-17 13:41 23.557971 70.865751 108 39064ft 601kts
05-Feb-17 13:42 23.482416 71.022171 141 39065ft 581kts
05-Feb-17 13:43 23.368625 71.107003 156 39061ft 565kts
05-Feb-17 13:44 23.234692 71.195131 155 39059ft 564kts
05-Feb-17 13:45 23.101802 71.285469 154 39058ft 564kts
05-Feb-17 13:46 22.968872 71.375592 154 39055ft 564kts
05-Feb-17 13:47 22.835939 71.465493 154 39054ft 563kts
05-Feb-17 13:48 22.702617 71.555455 154 39054ft 563kts
05-Feb-17 13:49 22.569732 71.644911 154 39053ft 562kts
05-Feb-17 13:50 22.459477 71.718976 154 39053ft 563kts
05-Feb-17 13:51 22.326632 71.808032 153 39052ft 562kts
05-Feb-17 13:52 22.193309 71.897206 153 39052ft 562kts
05-Feb-17 13:53 22.060487 71.985849 153 39052ft 562kts
05-Feb-17 13:54 21.927647 72.074425 153 39051ft 562kts
05-Feb-17 13:55 21.794657 72.162698 153 39050ft 562kts
05-Feb-17 13:56 21.663632 72.215369 173 39049ft 544kts
05-Feb-17 13:57 21.534715 72.247314 173 39049ft 540kts
05-Feb-17 13:58 21.534715 72.247314 173 39049ft 540kts
05-Feb-17 13:59 21.534715 72.247314 173 39049ft 540kts
05-Feb-17 14:00 21.534715 72.247314 173 39049ft 540kts
05-Feb-17 14:01 21.405812 72.280424 172 39047ft 540kts
05-Feb-17 14:02 21.261066 72.317772 173 37781ft 528kts
05-Feb-17 14:03 21.133919 72.350520 172 37732ft 546kts
05-Feb-17 14:04 20.984880 72.388748 172 37724ft 556kts
05-Feb-17 14:05 20.836664 72.426919 172 36665ft 531kts
05-Feb-17 14:06 20.696160 72.463102 172 34157ft 507kts
05-Feb-17 14:07 20.561475 72.497855 172 31661ft 490kts
05-Feb-17 14:08 20.480140 72.518815 172 30114ft 481kts
05-Feb-17 14:09 20.430515 72.531592 172 29154ft 474kts
05-Feb-17 14:10 20.328184 72.557983 172 27134ft 462kts
05-Feb-17 14:11 20.215536 72.586990 171 24843ft 447kts
05-Feb-17 14:12 20.185239 72.594778 171 24214ft 443kts
05-Feb-17 14:31 19.093458 73.076475 248 2884ft 179kts
05-Feb-17 14:32 19.089229 73.025274 272 2892ft 175kts
05-Feb-17 14:33 19.089263 72.973949 271 2018ft 169kts
05-Feb-17 14:34 19.089353 72.934286 271 1222ft 153kts
05-Feb-17 14:35 19.088957 72.893749 271 486ft 150kts
05-Feb-17 14:36 19.088806 72.855996 270 50ft 65kts
05-Feb-17 14:37 19.090339 72.850317 45 50ft 13kts
05-Feb-17 14:38 19.090747 72.853867 81 50ft 11kts
05-Feb-17 14:39 19.091405 72.854480 0 50ft 0kts
05-Feb-17 14:40 19.091405 72.854480 0 50ft 0kts
05-Feb-17 14:41 19.091406 72.854480 0 50ft 0kts
05-Feb-17 14:42 19.091406 72.854480 0 50ft 0kts
05-Feb-17 14:43 19.091406 72.854480 0 50ft 0kts

Navigation Log

Ident Type
Flight plan parsing failed, navigation log unavailable